createdAt,value
2023-05-06T00:02:02.364Z,2.99
2023-05-06T00:04:28.885Z,3.08
2023-05-06T00:06:55.339Z,2.78
2023-05-06T00:09:21.761Z,2.59
2023-05-06T00:11:48.214Z,2.50
2023-05-06T00:14:14.698Z,2.50
2023-05-06T00:16:41.292Z,2.43
2023-05-06T00:19:07.808Z,2.79
2023-05-06T00:21:34.283Z,2.61
2023-05-06T00:24:00.872Z,2.48
2023-05-06T00:29:17.927Z,2.44
2023-05-06T00:31:44.467Z,2.54
2023-05-06T00:34:10.964Z,2.65
2023-05-06T00:36:37.427Z,3.22
2023-05-06T00:39:03.862Z,3.41
2023-05-06T00:41:30.365Z,3.50
2023-05-06T00:43:56.903Z,3.56
2023-05-06T00:49:14.031Z,3.64
2023-05-06T00:51:40.509Z,3.64
2023-05-06T00:54:07.065Z,3.88
2023-05-06T00:56:33.567Z,3.94
2023-05-06T00:59:00.098Z,3.98
2023-05-06T01:01:26.756Z,3.62
2023-05-06T01:03:53.304Z,3.20
2023-05-06T01:06:19.869Z,2.98
2023-05-06T01:08:46.317Z,3.42
2023-05-06T01:13:53.164Z,3.67
2023-05-06T01:16:19.719Z,3.58
2023-05-06T01:18:46.295Z,3.65
2023-05-06T01:21:12.840Z,2.91
2023-05-06T01:23:39.345Z,2.56
2023-05-06T01:26:05.821Z,2.83
2023-05-06T01:28:32.340Z,2.70
2023-05-06T01:30:58.861Z,2.82
2023-05-06T01:33:25.314Z,2.70
2023-05-06T01:35:51.769Z,3.34
2023-05-06T01:38:18.289Z,3.78
2023-05-06T01:40:44.760Z,3.35
2023-05-06T01:43:11.318Z,3.39
2023-05-06T01:45:37.808Z,2.74
2023-05-06T01:48:04.372Z,2.60
2023-05-06T01:50:34.808Z,2.49
2023-05-06T01:53:01.349Z,2.96
2023-05-06T01:55:30.155Z,2.64
2023-05-06T01:57:56.671Z,2.80
2023-05-06T02:00:23.372Z,2.99
2023-05-06T02:02:54.203Z,2.84
2023-05-06T02:05:20.703Z,3.04
2023-05-06T02:07:47.222Z,2.98
2023-05-06T02:10:13.680Z,2.90
2023-05-06T02:12:40.160Z,2.81
2023-05-06T02:15:06.778Z,2.78
2023-05-06T02:17:33.369Z,2.74
2023-05-06T02:19:59.925Z,2.86
2023-05-06T02:22:26.554Z,2.86
2023-05-06T02:24:52.975Z,2.56
2023-05-06T02:27:19.715Z,2.50
2023-05-06T02:29:49.331Z,2.40
2023-05-06T02:32:15.710Z,2.39
2023-05-06T02:37:32.639Z,2.33
2023-05-06T02:39:59.121Z,2.33
2023-05-06T02:45:07.180Z,2.12
2023-05-06T02:47:33.957Z,2.49
2023-05-06T02:50:00.465Z,2.82
2023-05-06T02:52:26.974Z,2.60
2023-05-06T02:54:53.442Z,2.53
2023-05-06T02:57:19.899Z,2.36
2023-05-06T02:59:46.398Z,2.34
2023-05-06T03:02:12.903Z,2.27
2023-05-06T03:04:41.959Z,2.27
2023-05-06T03:07:09.746Z,2.37
2023-05-06T03:09:36.255Z,2.40
2023-05-06T03:12:02.799Z,2.39
2023-05-06T03:14:29.291Z,2.24
2023-05-06T03:16:55.767Z,2.51
2023-05-06T03:19:22.347Z,2.92
2023-05-06T03:21:48.888Z,3.01
2023-05-06T03:24:15.449Z,2.92
2023-05-06T03:26:48.502Z,2.49
2023-05-06T03:29:15.089Z,2.73
2023-05-06T03:31:41.628Z,2.79
2023-05-06T03:34:08.234Z,2.71
2023-05-06T03:36:34.733Z,2.71
2023-05-06T03:39:01.389Z,2.49
2023-05-06T03:41:27.816Z,2.58
2023-05-06T03:43:54.349Z,2.82
2023-05-06T03:46:20.858Z,3.27
2023-05-06T03:48:47.379Z,3.27
2023-05-06T03:51:13.975Z,2.95
2023-05-06T03:56:20.830Z,2.77
2023-05-06T03:58:47.347Z,2.80
2023-05-06T04:01:13.888Z,2.78
2023-05-06T04:03:40.410Z,2.60
2023-05-06T04:06:06.976Z,2.66
2023-05-06T04:08:33.472Z,2.54
2023-05-06T04:11:00.859Z,2.73
2023-05-06T04:13:27.350Z,2.79
2023-05-06T04:15:56.804Z,2.52
2023-05-06T04:18:23.296Z,2.59
2023-05-06T04:20:49.778Z,2.58
2023-05-06T04:23:16.304Z,2.57
2023-05-06T04:25:42.846Z,2.64
2023-05-06T04:28:09.278Z,2.63
2023-05-06T04:30:35.784Z,2.41
2023-05-06T04:33:02.712Z,2.55
2023-05-06T04:35:30.462Z,2.56
2023-05-06T04:37:56.939Z,2.51
2023-05-06T04:40:23.370Z,2.58
2023-05-06T04:42:49.796Z,2.84
2023-05-06T04:45:17.181Z,2.79
2023-05-06T04:47:43.756Z,2.74
2023-05-06T04:50:10.235Z,2.48
2023-05-06T04:52:36.734Z,2.45
2023-05-06T04:55:03.324Z,2.53
2023-05-06T04:57:29.808Z,2.67
2023-05-06T04:59:56.347Z,2.47
2023-05-06T05:02:22.904Z,2.85
2023-05-06T05:04:49.430Z,3.15
2023-05-06T05:07:18.367Z,3.27
2023-05-06T05:09:47.545Z,2.99
2023-05-06T05:12:14.066Z,3.22
2023-05-06T05:14:40.553Z,2.94
2023-05-06T05:17:07.192Z,3.30
2023-05-06T05:19:33.799Z,3.60
2023-05-06T05:22:00.328Z,3.32
2023-05-06T05:24:26.805Z,4.36
2023-05-06T05:26:53.309Z,3.52
2023-05-06T05:32:00.146Z,3.74
2023-05-06T05:34:26.621Z,3.46
2023-05-06T05:36:53.123Z,3.44
2023-05-06T05:39:19.632Z,3.61
2023-05-06T05:41:46.110Z,3.52
2023-05-06T05:44:12.491Z,4.20
2023-05-06T05:46:38.946Z,4.10
2023-05-06T05:49:05.495Z,4.09
2023-05-06T05:51:31.949Z,3.96
2023-05-06T05:54:07.944Z,3.99
2023-05-06T05:56:34.543Z,3.87
2023-05-06T05:59:01.076Z,3.77
2023-05-06T06:01:27.526Z,3.69
2023-05-06T06:03:54.284Z,3.74
2023-05-06T06:06:20.909Z,3.90
2023-05-06T06:08:47.323Z,4.19
2023-05-06T06:11:13.678Z,6.92
2023-05-06T06:13:40.085Z,3.71
2023-05-06T06:16:06.581Z,3.17
2023-05-06T06:18:33.090Z,2.99
2023-05-06T06:20:59.596Z,3.24
2023-05-06T06:23:27.245Z,3.52
2023-05-06T06:25:53.622Z,3.43
2023-05-06T06:28:20.086Z,3.51
2023-05-06T06:30:46.464Z,3.66
2023-05-06T06:33:12.880Z,4.17
2023-05-06T06:35:39.321Z,4.12
2023-05-06T06:38:05.791Z,4.98
2023-05-06T06:40:32.218Z,14.62
2023-05-06T06:42:58.721Z,10.47
2023-05-06T06:45:25.053Z,8.63
2023-05-06T06:47:51.452Z,9.14
2023-05-06T06:50:20.679Z,5.32
2023-05-06T06:52:47.848Z,5.14
2023-05-06T06:55:14.241Z,4.55
2023-05-06T06:57:45.550Z,4.13
2023-05-06T07:00:12.282Z,4.48
2023-05-06T07:02:44.365Z,4.45
2023-05-06T07:05:11.627Z,4.46
2023-05-06T07:07:38.362Z,4.48
2023-05-06T07:10:06.212Z,4.69
2023-05-06T07:12:32.636Z,4.66
2023-05-06T07:15:01.318Z,4.76
2023-05-06T07:17:27.678Z,4.84
2023-05-06T07:20:04.536Z,4.41
2023-05-06T07:22:31.242Z,4.75
2023-05-06T07:24:57.715Z,4.49
2023-05-06T07:27:25.186Z,4.75
2023-05-06T07:29:51.620Z,4.81
2023-05-06T07:32:18.001Z,4.80
2023-05-06T07:34:44.354Z,4.70
2023-05-06T07:37:10.686Z,4.47
2023-05-06T07:40:06.067Z,4.28
2023-05-06T07:42:32.447Z,4.63
2023-05-06T07:44:58.995Z,4.47
2023-05-06T07:47:25.690Z,4.62
2023-05-06T07:49:52.255Z,4.72
2023-05-06T07:52:22.384Z,4.77
2023-05-06T07:54:48.939Z,4.98
2023-05-06T07:57:15.445Z,5.42
2023-05-06T07:59:41.830Z,5.54
2023-05-06T08:02:09.928Z,5.31
2023-05-06T08:04:36.482Z,5.01
2023-05-06T08:07:02.947Z,5.52
2023-05-06T08:09:29.349Z,6.09
2023-05-06T08:11:55.753Z,6.19
2023-05-06T08:14:22.176Z,6.12
2023-05-06T08:16:48.540Z,6.16
2023-05-06T08:19:14.941Z,6.38
2023-05-06T08:21:41.292Z,6.08
2023-05-06T08:24:07.700Z,6.53
2023-05-06T08:26:34.115Z,6.51
2023-05-06T08:29:00.474Z,6.37
2023-05-06T08:31:26.895Z,6.29
2023-05-06T08:33:54.593Z,6.36
2023-05-06T08:36:21.324Z,6.35
2023-05-06T08:38:47.855Z,6.02
2023-05-06T08:41:15.656Z,6.38
2023-05-06T08:43:43.538Z,6.64
2023-05-06T08:46:11.407Z,6.65
2023-05-06T08:48:38.134Z,6.64
2023-05-06T08:51:07.248Z,6.85
2023-05-06T08:53:33.717Z,6.90
2023-05-06T08:56:00.149Z,6.73
2023-05-06T08:58:26.557Z,6.91
2023-05-06T09:00:52.977Z,7.25
2023-05-06T09:03:31.830Z,7.14
2023-05-06T09:05:58.308Z,6.61
2023-05-06T09:08:24.677Z,6.94
2023-05-06T09:10:51.066Z,7.91
2023-05-06T09:13:17.557Z,7.14
2023-05-06T09:15:44.022Z,7.26
2023-05-06T09:18:10.438Z,6.96
2023-05-06T09:20:37.439Z,7.76
2023-05-06T09:23:03.821Z,7.79
2023-05-06T09:25:30.157Z,7.96
2023-05-06T09:27:56.783Z,7.64
2023-05-06T09:30:23.149Z,7.68
2023-05-06T09:32:49.618Z,8.10
2023-05-06T09:35:16.070Z,8.09
2023-05-06T09:37:42.420Z,8.02
2023-05-06T09:40:08.798Z,8.36
2023-05-06T09:42:35.252Z,8.75
2023-05-06T09:45:02.365Z,8.58
2023-05-06T09:47:28.863Z,8.47
2023-05-06T09:49:55.344Z,8.20
2023-05-06T09:52:21.779Z,8.18
2023-05-06T09:54:48.235Z,7.80
2023-05-06T09:57:14.605Z,7.27
2023-05-06T09:59:40.993Z,7.54
2023-05-06T10:02:07.489Z,7.21
2023-05-06T10:04:33.963Z,7.27
2023-05-06T10:07:00.499Z,6.66
2023-05-06T10:09:30.059Z,6.18
2023-05-06T10:11:56.442Z,5.99
2023-05-06T10:14:22.808Z,6.00
2023-05-06T10:16:49.234Z,7.32
2023-05-06T10:19:15.606Z,7.36
2023-05-06T10:21:41.944Z,8.32
2023-05-06T10:24:08.343Z,8.15
2023-05-06T10:26:34.765Z,7.88
2023-05-06T10:29:01.493Z,7.33
2023-05-06T10:31:32.169Z,6.60
2023-05-06T10:33:58.517Z,6.00
2023-05-06T10:36:24.880Z,5.60
2023-05-06T10:38:51.211Z,6.04
2023-05-06T10:41:17.555Z,6.39
2023-05-06T10:43:47.856Z,6.75
2023-05-06T10:46:14.303Z,6.93
2023-05-06T10:48:40.654Z,6.85
2023-05-06T10:51:11.969Z,5.65
2023-05-06T10:56:18.799Z,6.28
2023-05-06T10:58:45.284Z,6.03
2023-05-06T11:01:11.873Z,6.32
2023-05-06T11:03:38.336Z,6.09
2023-05-06T11:08:57.381Z,6.73
2023-05-06T11:11:23.757Z,6.86
2023-05-06T11:13:50.690Z,6.50
2023-05-06T11:16:17.194Z,6.77
2023-05-06T11:18:43.593Z,6.48
2023-05-06T11:21:09.939Z,5.68
2023-05-06T11:23:36.271Z,4.54
2023-05-06T11:26:02.749Z,4.01
2023-05-06T11:28:29.520Z,4.05
2023-05-06T11:30:56.431Z,4.31
2023-05-06T11:33:22.815Z,4.06
2023-05-06T11:35:49.131Z,4.67
2023-05-06T11:38:15.464Z,7.23
2023-05-06T11:40:41.804Z,4.89
2023-05-06T11:43:08.133Z,4.26
2023-05-06T11:45:34.464Z,4.17
2023-05-06T11:48:02.397Z,3.90
2023-05-06T11:50:31.881Z,3.86
2023-05-06T11:52:58.201Z,4.05
2023-05-06T11:55:25.428Z,3.94
2023-05-06T11:57:52.114Z,3.59
2023-05-06T12:00:18.456Z,3.59
2023-05-06T12:02:44.859Z,4.02
2023-05-06T12:05:11.278Z,4.07
2023-05-06T12:07:37.679Z,4.27
2023-05-06T12:10:04.015Z,4.61
2023-05-06T12:12:30.355Z,5.47
2023-05-06T12:14:56.712Z,8.01
2023-05-06T12:17:23.448Z,6.11
2023-05-06T12:19:49.917Z,4.91
2023-05-06T12:22:16.363Z,4.03
2023-05-06T12:24:42.900Z,3.60
2023-05-06T12:27:09.253Z,4.27
2023-05-06T12:29:35.649Z,4.23
2023-05-06T12:32:02.067Z,4.06
2023-05-06T12:34:29.490Z,4.24
2023-05-06T12:36:55.805Z,3.52
2023-05-06T12:39:22.122Z,3.12
2023-05-06T12:41:48.430Z,3.25
2023-05-06T12:44:14.761Z,3.37
2023-05-06T12:46:41.083Z,3.38
2023-05-06T12:49:07.468Z,3.19
2023-05-06T12:51:33.803Z,3.05
2023-05-06T12:54:00.169Z,2.99
2023-05-06T12:56:26.689Z,3.10
2023-05-06T12:58:53.057Z,2.53
2023-05-06T13:01:19.441Z,3.00
2023-05-06T13:03:45.955Z,3.36
2023-05-06T13:06:12.301Z,3.60
2023-05-06T13:08:38.671Z,3.32
2023-05-06T13:11:04.991Z,3.42
2023-05-06T13:13:31.327Z,3.07
2023-05-06T13:15:57.652Z,3.13
2023-05-06T13:18:23.985Z,2.93
2023-05-06T13:20:50.390Z,3.20
2023-05-06T13:23:16.753Z,3.08
2023-05-06T13:25:56.418Z,3.29
2023-05-06T13:28:29.479Z,3.04
2023-05-06T13:30:55.879Z,2.86
2023-05-06T13:33:22.217Z,3.24
2023-05-06T13:35:48.538Z,3.35
2023-05-06T13:38:14.855Z,3.36
2023-05-06T13:40:41.173Z,3.57
2023-05-06T13:43:07.517Z,3.22
2023-05-06T13:45:33.856Z,3.06
2023-05-06T13:48:00.310Z,2.74
2023-05-06T13:50:26.714Z,2.89
2023-05-06T13:52:53.067Z,3.26
2023-05-06T13:55:19.576Z,3.42
2023-05-06T13:57:46.052Z,3.84
2023-05-06T14:00:12.421Z,4.20
2023-05-06T14:02:38.841Z,4.93
2023-05-06T14:05:05.372Z,5.64
2023-05-06T14:07:31.727Z,6.00
2023-05-06T14:09:58.044Z,8.01
2023-05-06T14:12:24.360Z,8.21
2023-05-06T14:14:50.685Z,5.97
2023-05-06T14:17:17.044Z,5.30
2023-05-06T14:19:43.375Z,5.07
2023-05-06T14:22:09.704Z,4.50
2023-05-06T14:24:36.045Z,4.21
2023-05-06T14:27:02.456Z,3.96
2023-05-06T14:29:28.824Z,3.28
2023-05-06T14:31:55.214Z,2.98
2023-05-06T14:34:21.592Z,2.84
2023-05-06T14:36:47.975Z,2.87
2023-05-06T14:39:14.292Z,2.72
2023-05-06T14:41:40.641Z,2.49
2023-05-06T14:44:06.975Z,2.54
2023-05-06T14:46:33.324Z,3.03
2023-05-06T14:48:59.678Z,2.95
2023-05-06T14:51:26.021Z,2.77
2023-05-06T14:53:52.366Z,2.79
2023-05-06T14:56:18.682Z,2.57
2023-05-06T14:58:45.001Z,2.64
2023-05-06T15:01:11.423Z,2.44
2023-05-06T15:03:37.756Z,2.74
2023-05-06T15:06:04.202Z,2.94
2023-05-06T15:08:30.670Z,2.56
2023-05-06T15:10:56.997Z,2.29
2023-05-06T15:13:23.503Z,2.88
2023-05-06T15:15:49.980Z,2.54
2023-05-06T15:18:16.548Z,2.64
2023-05-06T15:20:42.869Z,2.42
2023-05-06T15:23:09.223Z,3.27
2023-05-06T15:25:36.694Z,2.81
2023-05-06T15:28:03.757Z,2.56
2023-05-06T15:30:30.196Z,2.44
2023-05-06T15:32:56.559Z,2.55
2023-05-06T15:35:22.904Z,2.36
2023-05-06T15:37:49.260Z,2.51
2023-05-06T15:40:15.589Z,2.80
2023-05-06T15:42:41.910Z,3.00
2023-05-06T15:45:08.265Z,2.89
2023-05-06T15:47:34.633Z,2.80
2023-05-06T15:50:14.059Z,2.77
2023-05-06T15:52:47.457Z,2.49
2023-05-06T15:55:13.978Z,2.39
2023-05-06T15:57:40.533Z,2.28
2023-05-06T16:00:06.924Z,3.04
2023-05-06T16:02:33.357Z,2.60
2023-05-06T16:04:59.880Z,2.43
2023-05-06T16:07:26.271Z,2.24
2023-05-06T16:09:52.626Z,2.37
2023-05-06T16:12:18.938Z,2.14
2023-05-06T16:14:45.315Z,2.39
2023-05-06T16:17:11.716Z,2.60
2023-05-06T16:19:38.313Z,2.22
2023-05-06T16:22:04.645Z,2.16
2023-05-06T16:24:31.062Z,2.67
2023-05-06T16:26:57.441Z,2.52
2023-05-06T16:29:23.788Z,2.32
2023-05-06T16:31:50.257Z,2.19
2023-05-06T16:34:16.704Z,3.44
2023-05-06T16:36:43.098Z,2.66
2023-05-06T16:39:09.430Z,5.84
2023-05-06T16:41:35.767Z,2.23
2023-05-06T16:44:02.117Z,2.06
2023-05-06T16:46:28.482Z,2.10
2023-05-06T16:48:54.857Z,2.42
2023-05-06T16:51:21.218Z,2.18
2023-05-06T16:53:47.581Z,2.43
2023-05-06T16:56:13.924Z,2.40
2023-05-06T16:58:40.287Z,2.61
2023-05-06T17:01:06.615Z,2.40
2023-05-06T17:03:33.091Z,2.26
2023-05-06T17:05:59.498Z,2.63
2023-05-06T17:08:26.922Z,2.34
2023-05-06T17:10:53.590Z,2.29
2023-05-06T17:13:19.982Z,2.72
2023-05-06T17:15:46.364Z,2.64
2023-05-06T17:18:12.699Z,2.83
2023-05-06T17:20:51.445Z,2.63
2023-05-06T17:23:21.870Z,2.77
2023-05-06T17:25:48.245Z,3.12
2023-05-06T17:28:15.487Z,3.52
2023-05-06T17:30:43.121Z,3.38
2023-05-06T17:33:09.523Z,3.68
2023-05-06T17:35:35.892Z,4.76
2023-05-06T17:38:02.231Z,8.80
2023-05-06T17:40:28.553Z,7.48
2023-05-06T17:42:54.907Z,3.78
2023-05-06T17:45:21.240Z,3.29
2023-05-06T17:47:47.650Z,3.15
2023-05-06T17:50:14.012Z,2.93
2023-05-06T17:52:40.434Z,3.23
2023-05-06T17:55:16.115Z,3.51
2023-05-06T17:57:43.101Z,3.56
2023-05-06T18:00:09.465Z,3.89
2023-05-06T18:02:36.368Z,4.32
2023-05-06T18:05:02.858Z,4.42
2023-05-06T18:07:29.200Z,4.36
2023-05-06T18:09:55.554Z,3.17
2023-05-06T18:12:21.898Z,3.73
2023-05-06T18:14:48.244Z,3.91
2023-05-06T18:17:14.604Z,7.16
2023-05-06T18:19:41.027Z,6.18
2023-05-06T18:22:07.475Z,6.65
2023-05-06T18:24:33.841Z,4.68
2023-05-06T18:27:00.163Z,3.92
2023-05-06T18:29:26.508Z,3.38
2023-05-06T18:31:52.890Z,3.36
2023-05-06T18:34:19.241Z,3.75
2023-05-06T18:36:45.583Z,3.88
2023-05-06T18:39:11.965Z,3.87
2023-05-06T18:41:38.436Z,3.56
2023-05-06T18:44:04.844Z,3.85
2023-05-06T18:46:31.220Z,4.20
2023-05-06T18:48:57.535Z,4.06
2023-05-06T18:51:23.998Z,4.35
2023-05-06T18:53:50.328Z,4.50
2023-05-06T18:56:16.657Z,4.20
2023-05-06T18:58:42.970Z,4.14
2023-05-06T19:01:09.343Z,4.71
2023-05-06T19:03:35.790Z,6.14
2023-05-06T19:06:02.192Z,3.91
2023-05-06T19:08:28.534Z,4.31
2023-05-06T19:10:54.952Z,3.64
2023-05-06T19:13:21.483Z,2.98
2023-05-06T19:15:47.833Z,3.05
2023-05-06T19:18:14.195Z,3.01
2023-05-06T19:20:40.593Z,2.76
2023-05-06T19:23:06.927Z,3.50
2023-05-06T19:25:33.263Z,3.87
2023-05-06T19:27:59.606Z,3.54
2023-05-06T19:30:25.927Z,4.10
2023-05-06T19:32:52.313Z,3.69
2023-05-06T19:35:18.724Z,2.86
2023-05-06T19:37:45.081Z,2.74
2023-05-06T19:40:11.430Z,2.66
2023-05-06T19:42:37.810Z,3.02
2023-05-06T19:45:04.146Z,3.52
2023-05-06T19:47:30.551Z,3.57
2023-05-06T19:49:56.952Z,3.75
2023-05-06T19:52:23.311Z,3.56
2023-05-06T19:54:50.048Z,4.25
2023-05-06T19:57:17.320Z,4.21
2023-05-06T19:59:43.652Z,3.46
2023-05-06T20:02:10.059Z,3.39
2023-05-06T20:04:36.526Z,3.38
2023-05-06T20:07:02.905Z,3.29
2023-05-06T20:09:29.239Z,3.31
2023-05-06T20:11:55.620Z,3.27
2023-05-06T20:14:22.096Z,3.26
2023-05-06T20:16:48.527Z,3.13
2023-05-06T20:19:14.955Z,3.24
2023-05-06T20:21:41.293Z,3.24
2023-05-06T20:24:07.657Z,3.40
2023-05-06T20:26:33.989Z,3.37
2023-05-06T20:29:00.408Z,3.22
2023-05-06T20:31:26.818Z,3.09
2023-05-06T20:33:53.182Z,3.09
2023-05-06T20:36:19.539Z,3.30
2023-05-06T20:38:45.894Z,3.54
2023-05-06T20:41:12.276Z,3.50
2023-05-06T20:43:38.659Z,3.92
2023-05-06T20:46:05.298Z,3.80
2023-05-06T20:48:31.696Z,3.23
2023-05-06T20:50:58.033Z,3.62
2023-05-06T20:53:24.457Z,3.46
2023-05-06T20:55:50.974Z,3.39
2023-05-06T20:58:17.334Z,3.35
2023-05-06T21:00:43.742Z,3.19
2023-05-06T21:03:10.171Z,3.39
2023-05-06T21:05:36.667Z,3.44
2023-05-06T21:08:03.006Z,3.40
2023-05-06T21:10:29.380Z,3.45
2023-05-06T21:12:55.789Z,3.49
2023-05-06T21:15:22.163Z,3.95
2023-05-06T21:17:48.601Z,3.67
2023-05-06T21:20:14.991Z,3.67
2023-05-06T21:22:41.332Z,3.69
2023-05-06T21:25:07.808Z,3.97
2023-05-06T21:27:34.261Z,3.76
2023-05-06T21:30:00.639Z,3.73
2023-05-06T21:32:27.028Z,3.72
2023-05-06T21:34:53.395Z,3.53
2023-05-06T21:37:19.748Z,3.86
2023-05-06T21:39:46.106Z,3.73
2023-05-06T21:42:12.460Z,3.51
2023-05-06T21:44:38.827Z,3.52
2023-05-06T21:47:05.172Z,4.23
2023-05-06T21:49:31.550Z,4.07
2023-05-06T21:51:57.952Z,3.82
2023-05-06T21:54:24.356Z,3.81
2023-05-06T21:56:50.698Z,3.96
2023-05-06T21:59:19.079Z,3.52
2023-05-06T22:01:45.531Z,3.62
2023-05-06T22:04:11.979Z,3.64
2023-05-06T22:06:38.364Z,3.35
2023-05-06T22:09:04.698Z,3.57
2023-05-06T22:11:31.022Z,3.44
2023-05-06T22:13:57.365Z,3.16
2023-05-06T22:16:23.732Z,3.20
2023-05-06T22:18:50.128Z,2.99
2023-05-06T22:21:16.449Z,3.06
2023-05-06T22:23:42.867Z,2.87
2023-05-06T22:26:09.249Z,3.21
2023-05-06T22:28:35.581Z,3.44
2023-05-06T22:31:01.933Z,2.98
2023-05-06T22:33:28.314Z,3.28
2023-05-06T22:35:54.648Z,3.36
2023-05-06T22:38:20.988Z,3.19
2023-05-06T22:40:47.343Z,2.98
2023-05-06T22:43:13.717Z,3.04
2023-05-06T22:45:40.113Z,3.09
2023-05-06T22:48:06.645Z,2.77
2023-05-06T22:50:33.051Z,3.18
2023-05-06T22:53:04.890Z,3.44
2023-05-06T22:55:38.066Z,3.30
2023-05-06T22:58:04.709Z,3.20
2023-05-06T23:00:31.068Z,3.22
2023-05-06T23:02:57.392Z,3.30
2023-05-06T23:05:23.709Z,3.18
2023-05-06T23:07:50.067Z,3.17
2023-05-06T23:10:16.438Z,3.26
2023-05-06T23:12:42.842Z,3.40
2023-05-06T23:15:09.325Z,3.30
2023-05-06T23:17:35.815Z,3.31
2023-05-06T23:20:04.120Z,3.41
2023-05-06T23:22:30.573Z,3.31
2023-05-06T23:24:56.970Z,3.24
2023-05-06T23:27:23.333Z,3.66
2023-05-06T23:29:49.740Z,3.29
2023-05-06T23:32:16.202Z,3.27
2023-05-06T23:34:42.582Z,3.20
2023-05-06T23:37:08.994Z,3.32
2023-05-06T23:39:35.333Z,3.31
2023-05-06T23:42:01.728Z,3.32
2023-05-06T23:44:28.133Z,3.63
2023-05-06T23:46:54.737Z,4.10
2023-05-06T23:49:21.158Z,4.15
2023-05-06T23:51:47.513Z,4.33
2023-05-06T23:54:13.905Z,4.01
2023-05-06T23:56:40.257Z,4.11
2023-05-06T23:59:06.607Z,3.72
